createdAt,value
2022-12-25T00:01:45.583Z,12.80
2022-12-25T00:04:18.962Z,10.40
2022-12-25T00:06:52.053Z,9.30
2022-12-25T00:09:26.658Z,13.40
2022-12-25T00:11:59.754Z,11.40
2022-12-25T00:14:32.838Z,15.00
2022-12-25T00:17:05.983Z,14.90
2022-12-25T00:19:39.170Z,12.20
2022-12-25T00:22:12.374Z,11.40
2022-12-25T00:24:45.856Z,8.80
2022-12-25T00:27:19.305Z,12.90
2022-12-25T00:29:53.146Z,14.70
2022-12-25T00:32:26.415Z,13.90
2022-12-25T00:34:59.416Z,10.00
2022-12-25T00:37:32.432Z,9.60
2022-12-25T00:40:05.883Z,9.20
2022-12-25T00:42:39.145Z,10.90
2022-12-25T00:45:15.797Z,9.60
2022-12-25T00:47:49.060Z,11.60
2022-12-25T00:50:22.574Z,12.20
2022-12-25T00:52:55.596Z,7.80
2022-12-25T00:55:29.562Z,11.30
2022-12-25T00:58:03.300Z,10.70
2022-12-25T01:00:36.432Z,7.80
2022-12-25T01:03:11.041Z,13.10
2022-12-25T01:05:44.184Z,9.50
2022-12-25T01:08:17.256Z,6.60
2022-12-25T01:10:56.600Z,12.40
2022-12-25T01:13:30.013Z,10.40
2022-12-25T01:16:08.691Z,9.30
2022-12-25T01:18:43.487Z,8.90
2022-12-25T01:21:20.277Z,10.20
2022-12-25T01:23:54.979Z,8.50
2022-12-25T01:26:30.147Z,9.00
2022-12-25T01:29:03.879Z,11.50
2022-12-25T01:31:36.981Z,17.30
2022-12-25T01:34:10.080Z,13.80
2022-12-25T01:36:43.303Z,12.80
2022-12-25T01:39:16.279Z,9.90
2022-12-25T01:41:50.383Z,12.90
2022-12-25T01:45:24.329Z,14.60
2022-12-25T01:47:57.617Z,12.90
2022-12-25T01:50:30.876Z,16.20
2022-12-25T01:53:04.131Z,10.10
2022-12-25T01:55:37.754Z,15.80
2022-12-25T01:58:10.843Z,10.40
2022-12-25T02:00:44.051Z,9.70
2022-12-25T02:03:18.456Z,17.10
2022-12-25T02:05:52.848Z,12.70
2022-12-25T02:08:26.436Z,14.50
2022-12-25T02:10:59.980Z,14.70
2022-12-25T02:13:36.708Z,16.90
2022-12-25T02:16:16.849Z,15.40
2022-12-25T02:18:58.097Z,14.90
2022-12-25T02:21:52.864Z,14.20
2022-12-25T02:24:54.467Z,15.10
2022-12-25T02:27:49.237Z,13.90
2022-12-25T02:30:22.545Z,13.50
2022-12-25T02:33:15.421Z,10.50
2022-12-25T02:35:51.765Z,11.40
2022-12-25T02:38:32.545Z,13.20
2022-12-25T02:41:12.802Z,11.00
2022-12-25T02:44:04.973Z,13.90
2022-12-25T02:46:55.499Z,10.60
2022-12-25T02:52:40.376Z,9.10
2022-12-25T02:55:34.187Z,12.50
2022-12-25T02:58:28.601Z,15.30
2022-12-25T03:01:22.759Z,14.00
2022-12-25T03:04:16.344Z,13.20
2022-12-25T03:07:09.392Z,12.60
2022-12-25T03:10:04.357Z,15.50
2022-12-25T03:12:47.718Z,12.90
2022-12-25T03:15:40.042Z,15.10
2022-12-25T03:18:19.174Z,11.90
2022-12-25T03:21:09.405Z,17.10
2022-12-25T03:24:03.650Z,16.70
2022-12-25T03:26:56.503Z,11.10
2022-12-25T03:29:50.678Z,14.10
2022-12-25T03:32:41.115Z,15.00
2022-12-25T03:35:24.122Z,15.90
2022-12-25T03:38:38.477Z,11.80
2022-12-25T03:41:36.063Z,12.50
2022-12-25T03:44:40.409Z,12.10
2022-12-25T03:47:52.876Z,16.00
2022-12-25T03:50:48.444Z,11.10
2022-12-25T03:53:44.848Z,14.40
2022-12-25T03:56:51.863Z,16.20
2022-12-25T03:59:43.427Z,16.60
2022-12-25T04:02:34.238Z,19.10
2022-12-25T04:05:26.122Z,17.70
2022-12-25T04:08:16.667Z,19.20
2022-12-25T04:13:57.884Z,12.20
2022-12-25T04:16:48.175Z,19.70
2022-12-25T04:19:38.652Z,14.60
2022-12-25T04:25:17.916Z,18.50
2022-12-25T04:28:08.420Z,18.80
2022-12-25T04:31:00.555Z,16.20
2022-12-25T04:33:51.238Z,14.90
2022-12-25T04:38:55.989Z,17.60
2022-12-25T04:41:28.981Z,16.10
2022-12-25T04:44:01.962Z,14.40
2022-12-25T04:46:35.033Z,10.00
2022-12-25T04:49:08.099Z,17.80
2022-12-25T04:51:41.423Z,18.00
2022-12-25T04:54:14.374Z,16.50
2022-12-25T04:56:47.304Z,16.90
2022-12-25T04:59:20.275Z,17.90
2022-12-25T05:01:53.410Z,16.10
2022-12-25T05:04:26.410Z,16.30
2022-12-25T05:06:59.347Z,15.70
2022-12-25T05:09:32.599Z,18.80
2022-12-25T05:12:05.986Z,15.80
2022-12-25T05:14:40.126Z,11.70
2022-12-25T05:17:13.179Z,15.10
2022-12-25T05:19:46.222Z,13.40
2022-12-25T05:22:19.177Z,10.20
2022-12-25T05:24:52.205Z,13.00
2022-12-25T05:27:25.267Z,11.90
2022-12-25T05:29:58.235Z,18.10
2022-12-25T05:32:31.268Z,17.90
2022-12-25T05:35:04.329Z,16.30
2022-12-25T05:37:37.511Z,22.50
2022-12-25T05:40:13.759Z,16.40
2022-12-25T05:42:46.849Z,20.40
2022-12-25T05:45:20.016Z,22.30
2022-12-25T05:47:53.624Z,18.60
2022-12-25T05:50:26.658Z,13.40
2022-12-25T05:53:12.454Z,15.30
2022-12-25T05:55:46.895Z,15.70
2022-12-25T05:58:19.841Z,27.80
2022-12-25T06:00:52.884Z,25.60
2022-12-25T06:03:26.248Z,22.80
2022-12-25T06:05:59.301Z,13.00
2022-12-25T06:08:32.270Z,14.90
2022-12-25T06:11:08.341Z,17.80
2022-12-25T06:13:41.454Z,14.40
2022-12-25T06:16:15.407Z,13.70
2022-12-25T06:18:53.369Z,16.70
2022-12-25T06:21:26.424Z,16.10
2022-12-25T06:24:00.793Z,14.70
2022-12-25T06:26:33.987Z,16.10
2022-12-25T06:29:07.367Z,21.30
2022-12-25T06:31:40.426Z,15.50
2022-12-25T06:34:16.549Z,16.40
2022-12-25T06:36:49.675Z,18.40
2022-12-25T06:39:22.934Z,18.90
2022-12-25T06:41:55.956Z,22.20
2022-12-25T06:44:29.216Z,21.70
2022-12-25T06:47:02.171Z,21.10
2022-12-25T06:49:35.190Z,22.20
2022-12-25T06:52:08.347Z,13.70
2022-12-25T06:54:41.324Z,15.90
2022-12-25T06:57:14.358Z,14.80
2022-12-25T06:59:52.949Z,16.00
2022-12-25T07:05:00.126Z,18.40
2022-12-25T07:07:33.140Z,17.30
2022-12-25T07:10:07.186Z,18.50
2022-12-25T07:12:40.257Z,19.20
2022-12-25T07:15:14.606Z,18.60
2022-12-25T07:17:47.532Z,12.80
2022-12-25T07:20:20.803Z,16.50
2022-12-25T07:22:53.814Z,23.50
2022-12-25T07:25:28.789Z,16.00
2022-12-25T07:28:05.251Z,18.10
2022-12-25T07:30:39.063Z,22.30
2022-12-25T07:33:12.100Z,16.50
2022-12-25T07:35:45.365Z,21.30
2022-12-25T07:38:18.340Z,21.00
2022-12-25T07:40:51.370Z,22.40
2022-12-25T07:43:24.669Z,20.50
2022-12-25T07:46:01.906Z,22.30
2022-12-25T07:48:35.033Z,23.70
2022-12-25T07:51:12.143Z,32.80
2022-12-25T07:53:45.769Z,35.40
2022-12-25T07:56:21.039Z,29.90
2022-12-25T07:58:54.231Z,37.30
2022-12-25T08:01:29.929Z,36.70
2022-12-25T08:04:04.970Z,35.40
2022-12-25T08:06:39.089Z,35.50
2022-12-25T08:09:14.098Z,34.30
2022-12-25T08:11:51.081Z,29.20
2022-12-25T08:14:24.120Z,28.60
2022-12-25T08:16:57.233Z,29.20
2022-12-25T08:19:30.413Z,28.10
2022-12-25T08:22:03.515Z,35.70
2022-12-25T08:24:36.254Z,43.60
2022-12-25T08:27:09.283Z,27.90
2022-12-25T08:29:44.658Z,22.70
2022-12-25T08:32:17.798Z,21.40
2022-12-25T08:34:50.806Z,20.20
2022-12-25T08:37:23.894Z,15.60
2022-12-25T08:39:56.865Z,16.50
2022-12-25T08:42:30.176Z,19.70
2022-12-25T08:45:04.828Z,22.60
2022-12-25T08:47:37.813Z,26.30
2022-12-25T08:50:12.620Z,18.60
2022-12-25T08:52:45.698Z,18.80
2022-12-25T08:55:18.914Z,18.90
2022-12-25T08:57:53.506Z,20.00
2022-12-25T09:00:26.770Z,17.20
2022-12-25T09:02:59.901Z,19.40
2022-12-25T09:05:35.741Z,18.30
2022-12-25T09:08:09.669Z,19.90
2022-12-25T09:10:42.745Z,23.40
2022-12-25T09:13:16.448Z,17.10
2022-12-25T09:15:49.865Z,21.70
2022-12-25T09:18:22.944Z,16.80
2022-12-25T09:21:04.647Z,17.90
2022-12-25T09:23:39.644Z,15.20
2022-12-25T09:26:16.716Z,16.60
2022-12-25T09:28:52.302Z,17.60
2022-12-25T09:31:26.404Z,17.40
2022-12-25T09:34:00.958Z,15.90
2022-12-25T09:36:34.039Z,19.60
2022-12-25T09:39:07.069Z,14.20
2022-12-25T09:41:50.333Z,15.20
2022-12-25T09:44:27.264Z,18.20
2022-12-25T09:47:04.130Z,16.80
2022-12-25T09:49:45.968Z,17.20
2022-12-25T09:52:22.229Z,15.60
2022-12-25T09:55:05.719Z,17.10
2022-12-25T09:57:38.713Z,16.40
2022-12-25T10:00:19.716Z,16.80
2022-12-25T10:03:37.395Z,15.00
2022-12-25T10:06:20.631Z,15.30
2022-12-25T10:09:22.068Z,15.60
2022-12-25T10:12:16.780Z,14.00
2022-12-25T10:15:04.979Z,16.20
2022-12-25T10:17:51.434Z,14.10
2022-12-25T10:20:40.312Z,14.00
2022-12-25T10:23:20.462Z,15.60
2022-12-25T10:25:55.284Z,14.50
2022-12-25T10:28:36.239Z,16.30
2022-12-25T10:31:22.353Z,16.90
2022-12-25T10:33:56.828Z,16.70
2022-12-25T10:36:31.932Z,20.70
2022-12-25T10:39:05.168Z,17.40
2022-12-25T10:42:04.365Z,16.70
2022-12-25T10:44:37.804Z,19.50
2022-12-25T10:47:11.390Z,21.00
2022-12-25T10:49:44.440Z,18.30
2022-12-25T10:52:27.072Z,16.40
2022-12-25T10:55:00.624Z,16.40
2022-12-25T10:57:33.699Z,22.70
2022-12-25T11:00:23.639Z,17.90
2022-12-25T11:02:57.090Z,19.00
2022-12-25T11:05:33.252Z,17.90
2022-12-25T11:08:19.497Z,15.10
2022-12-25T11:10:58.950Z,18.00
2022-12-25T11:13:34.505Z,14.30
2022-12-25T11:16:12.014Z,23.20
2022-12-25T11:18:54.386Z,14.40
2022-12-25T11:21:34.592Z,15.50
2022-12-25T11:24:20.112Z,16.10
2022-12-25T11:26:55.500Z,16.50
2022-12-25T11:29:38.845Z,17.60
2022-12-25T11:32:22.147Z,15.50
2022-12-25T11:34:56.655Z,14.20
2022-12-25T11:37:35.396Z,11.20
2022-12-25T11:40:16.016Z,20.50
2022-12-25T11:42:54.531Z,16.90
2022-12-25T11:45:33.553Z,16.40
2022-12-25T11:48:12.989Z,10.70
2022-12-25T11:50:49.697Z,13.50
2022-12-25T11:53:30.207Z,15.80
2022-12-25T11:58:41.077Z,13.50
2022-12-25T12:01:30.791Z,12.10
2022-12-25T12:04:08.467Z,14.40
2022-12-25T12:06:52.462Z,15.20
2022-12-25T12:09:40.282Z,15.80
2022-12-25T12:12:18.723Z,16.20
2022-12-25T12:14:59.762Z,16.60
2022-12-25T12:17:33.365Z,17.90
2022-12-25T12:20:33.690Z,16.10
2022-12-25T12:23:14.932Z,16.40
2022-12-25T12:25:50.132Z,12.70
2022-12-25T12:28:29.468Z,14.60
2022-12-25T12:31:07.061Z,14.90
2022-12-25T12:33:45.247Z,15.90
2022-12-25T12:36:29.268Z,13.30
2022-12-25T12:39:08.601Z,16.10
2022-12-25T12:41:50.886Z,10.30
2022-12-25T12:44:28.041Z,14.30
2022-12-25T12:47:01.365Z,11.00
2022-12-25T12:49:34.981Z,15.00
2022-12-25T12:52:32.525Z,17.00
2022-12-25T12:55:08.567Z,16.50
2022-12-25T12:57:42.992Z,18.20
2022-12-25T13:00:22.679Z,18.10
2022-12-25T13:03:24.433Z,17.50
2022-12-25T13:06:03.737Z,17.30
2022-12-25T13:08:57.251Z,17.80
2022-12-25T13:11:33.221Z,16.50
2022-12-25T13:14:06.851Z,19.50
2022-12-25T13:16:43.750Z,21.40
2022-12-25T13:19:22.020Z,19.50
2022-12-25T13:22:00.541Z,17.00
2022-12-25T13:24:36.129Z,14.40
2022-12-25T13:27:27.107Z,18.50
2022-12-25T13:30:00.927Z,18.30
2022-12-25T13:32:36.690Z,16.90
2022-12-25T13:35:15.397Z,17.50
2022-12-25T13:37:48.846Z,16.80
2022-12-25T13:40:29.341Z,13.50
2022-12-25T13:45:36.554Z,16.70
2022-12-25T13:48:20.312Z,15.10
2022-12-25T13:51:03.215Z,11.10
2022-12-25T13:53:36.179Z,18.40
2022-12-25T13:56:13.875Z,15.90
2022-12-25T13:58:49.619Z,16.20
2022-12-25T14:01:23.105Z,20.30
2022-12-25T14:03:57.072Z,16.90
2022-12-25T14:06:33.217Z,18.90
2022-12-25T14:09:07.235Z,15.80
2022-12-25T14:11:41.986Z,15.20
2022-12-25T14:14:23.044Z,19.60
2022-12-25T14:17:00.615Z,13.60
2022-12-25T14:19:35.927Z,14.80
2022-12-25T14:22:17.599Z,16.10
2022-12-25T14:24:50.937Z,18.00
2022-12-25T14:27:27.706Z,24.00
2022-12-25T14:30:02.401Z,20.00
2022-12-25T14:32:48.145Z,16.70
2022-12-25T14:35:23.703Z,16.70
2022-12-25T14:38:03.256Z,17.00
2022-12-25T14:40:37.305Z,19.80
2022-12-25T14:43:27.330Z,21.10
2022-12-25T14:46:02.923Z,27.00
2022-12-25T14:48:36.764Z,22.00
2022-12-25T14:51:17.496Z,21.00
2022-12-25T14:53:55.104Z,25.40
2022-12-25T14:56:33.328Z,28.10
2022-12-25T14:59:07.883Z,32.60
2022-12-25T15:01:43.078Z,30.80
2022-12-25T15:04:22.492Z,27.10
2022-12-25T15:07:00.941Z,26.90
2022-12-25T15:09:36.226Z,29.90
2022-12-25T15:12:09.986Z,28.90
2022-12-25T15:14:43.004Z,28.20
2022-12-25T15:17:26.560Z,31.70
2022-12-25T15:20:02.403Z,23.50
2022-12-25T15:23:02.408Z,25.80
2022-12-25T15:25:30.319Z,31.10
2022-12-25T15:28:06.694Z,29.30
2022-12-25T15:30:44.376Z,24.50
2022-12-25T15:33:20.516Z,38.10
2022-12-25T15:35:53.661Z,26.60
2022-12-25T15:38:26.770Z,29.00
2022-12-25T15:40:59.868Z,28.10
2022-12-25T15:43:41.196Z,26.60
2022-12-25T15:46:15.335Z,38.40
2022-12-25T15:48:48.565Z,36.00
2022-12-25T15:51:21.672Z,30.50
2022-12-25T15:53:54.828Z,33.20
2022-12-25T15:56:28.533Z,26.70
2022-12-25T15:59:01.503Z,37.20
2022-12-25T16:01:34.861Z,32.40
2022-12-25T16:04:07.965Z,40.60
2022-12-25T16:06:41.389Z,38.20
2022-12-25T16:09:16.622Z,35.90
2022-12-25T16:11:50.205Z,36.80
2022-12-25T16:14:23.294Z,34.30
2022-12-25T16:16:56.409Z,33.40
2022-12-25T16:19:29.537Z,28.70
2022-12-25T16:22:03.272Z,26.90
2022-12-25T16:24:36.581Z,34.70
2022-12-25T16:27:10.583Z,22.60
2022-12-25T16:29:43.773Z,26.40
2022-12-25T16:32:17.627Z,26.30
2022-12-25T16:34:53.137Z,24.40
2022-12-25T16:37:27.411Z,30.90
2022-12-25T16:40:00.655Z,24.40
2022-12-25T16:42:33.862Z,22.10
2022-12-25T16:45:08.107Z,22.10
2022-12-25T16:47:41.440Z,28.00
2022-12-25T16:50:16.543Z,21.90
2022-12-25T16:52:49.627Z,28.30
2022-12-25T16:55:29.344Z,30.90
2022-12-25T16:58:03.535Z,29.00
2022-12-25T17:00:36.770Z,28.20
2022-12-25T17:03:09.896Z,29.30
2022-12-25T17:05:43.251Z,26.50
2022-12-25T17:08:16.303Z,29.40
2022-12-25T17:10:49.363Z,31.20
2022-12-25T17:13:22.437Z,31.60
2022-12-25T17:15:55.499Z,32.40
2022-12-25T17:18:28.606Z,28.60
2022-12-25T17:21:01.787Z,30.80
2022-12-25T17:23:34.806Z,31.40
2022-12-25T17:26:08.753Z,36.10
2022-12-25T17:28:41.996Z,36.00
2022-12-25T17:31:16.171Z,35.40
2022-12-25T17:33:49.213Z,37.30
2022-12-25T17:36:24.190Z,39.70
2022-12-25T17:38:57.241Z,33.80
2022-12-25T17:41:30.546Z,34.30
2022-12-25T17:44:03.887Z,55.50
2022-12-25T17:46:36.935Z,49.10
2022-12-25T17:49:11.498Z,50.40
2022-12-25T17:51:44.765Z,44.30
2022-12-25T17:54:18.184Z,42.50
2022-12-25T17:56:51.201Z,40.30
2022-12-25T17:59:28.650Z,39.90
2022-12-25T18:02:01.835Z,43.80
2022-12-25T18:04:35.110Z,39.50
2022-12-25T18:07:08.132Z,47.60
2022-12-25T18:09:41.395Z,44.10
2022-12-25T18:12:14.527Z,46.30
2022-12-25T18:14:47.968Z,42.60
2022-12-25T18:17:20.974Z,45.10
2022-12-25T18:19:56.018Z,41.10
2022-12-25T18:22:29.036Z,45.20
2022-12-25T18:25:02.107Z,46.10
2022-12-25T18:27:35.242Z,38.90
2022-12-25T18:30:10.823Z,50.70
2022-12-25T18:32:44.017Z,35.70
2022-12-25T18:35:17.165Z,34.30
2022-12-25T18:37:50.330Z,42.80
2022-12-25T18:40:23.517Z,41.90
2022-12-25T18:43:02.918Z,45.20
2022-12-25T18:45:37.099Z,40.60
2022-12-25T18:48:11.658Z,40.50
2022-12-25T18:50:49.988Z,41.30
2022-12-25T18:53:24.041Z,40.20
2022-12-25T18:55:58.373Z,41.00
2022-12-25T18:58:31.492Z,41.60
2022-12-25T19:01:10.783Z,39.70
2022-12-25T19:03:44.290Z,41.60
2022-12-25T19:06:23.796Z,45.20
2022-12-25T19:08:57.997Z,42.60
2022-12-25T19:11:31.129Z,33.90
2022-12-25T19:14:04.260Z,38.90
2022-12-25T19:16:39.498Z,39.40
2022-12-25T19:19:13.280Z,44.00
2022-12-25T19:21:47.719Z,45.60
2022-12-25T19:24:20.909Z,44.70
2022-12-25T19:26:54.421Z,38.80
2022-12-25T19:29:27.931Z,39.00
2022-12-25T19:32:01.497Z,45.20
2022-12-25T19:34:34.715Z,48.00
2022-12-25T19:37:08.047Z,43.80
2022-12-25T19:39:46.248Z,43.50
2022-12-25T19:42:22.217Z,41.00
2022-12-25T19:44:56.075Z,48.50
2022-12-25T19:47:29.251Z,44.00
2022-12-25T19:50:03.584Z,37.00
2022-12-25T19:52:37.042Z,43.10
2022-12-25T19:55:11.765Z,39.10
2022-12-25T19:57:44.923Z,42.90
2022-12-25T20:00:19.552Z,45.70
2022-12-25T20:02:54.179Z,42.00
2022-12-25T20:05:29.160Z,36.90
2022-12-25T20:08:02.661Z,44.20
2022-12-25T20:10:35.786Z,36.30
2022-12-25T20:13:10.371Z,43.30
2022-12-25T20:15:43.883Z,36.40
2022-12-25T20:18:18.095Z,47.70
2022-12-25T20:20:51.291Z,41.90
2022-12-25T20:23:24.459Z,42.00
2022-12-25T20:26:01.109Z,43.40
2022-12-25T20:28:36.380Z,45.00
2022-12-25T20:31:20.795Z,39.70
2022-12-25T20:33:53.915Z,28.80
2022-12-25T20:36:32.627Z,31.80
2022-12-25T20:39:06.468Z,36.90
2022-12-25T20:41:40.994Z,32.20
2022-12-25T20:44:16.752Z,30.00
2022-12-25T20:46:49.805Z,34.00
2022-12-25T20:49:22.778Z,29.30
2022-12-25T20:52:01.345Z,28.30
2022-12-25T20:54:38.328Z,30.00
2022-12-25T20:57:11.535Z,31.00
2022-12-25T20:59:45.973Z,28.40
2022-12-25T21:02:34.709Z,33.30
2022-12-25T21:05:12.652Z,28.30
2022-12-25T21:07:45.722Z,25.40
2022-12-25T21:10:18.840Z,24.30
2022-12-25T21:12:52.040Z,28.10
2022-12-25T21:15:25.346Z,27.90
2022-12-25T21:17:58.402Z,25.30
2022-12-25T21:20:31.432Z,24.00
2022-12-25T21:23:04.425Z,31.20
2022-12-25T21:25:37.422Z,29.20
2022-12-25T21:28:10.826Z,29.40
2022-12-25T21:30:43.891Z,24.10
2022-12-25T21:33:35.439Z,20.60
2022-12-25T21:36:13.894Z,27.90
2022-12-25T21:38:47.142Z,27.40
2022-12-25T21:41:20.136Z,24.30
2022-12-25T21:43:53.300Z,25.70
2022-12-25T21:46:27.433Z,23.80
2022-12-25T21:49:01.085Z,27.50
2022-12-25T21:51:53.455Z,25.50
2022-12-25T21:54:26.866Z,35.20
2022-12-25T21:56:59.858Z,29.00
2022-12-25T21:59:32.950Z,28.50
2022-12-25T22:02:11.699Z,27.50
2022-12-25T22:04:45.309Z,30.70
2022-12-25T22:07:18.872Z,28.80
2022-12-25T22:09:53.593Z,27.20
2022-12-25T22:12:44.116Z,29.60
2022-12-25T22:18:06.184Z,27.90
2022-12-25T22:20:42.413Z,24.20
2022-12-25T22:23:16.453Z,33.40
2022-12-25T22:25:49.436Z,28.10
2022-12-25T22:28:22.614Z,24.30
2022-12-25T22:30:55.858Z,22.50
2022-12-25T22:33:28.874Z,22.80
2022-12-25T22:36:08.828Z,25.80
2022-12-25T22:38:44.473Z,27.30
2022-12-25T22:41:17.602Z,19.60
2022-12-25T22:44:16.480Z,23.20
2022-12-25T22:46:43.964Z,22.00
2022-12-25T22:49:17.278Z,30.80
2022-12-25T22:51:52.424Z,26.80
2022-12-25T22:54:26.749Z,25.40
2022-12-25T22:57:00.778Z,26.50
2022-12-25T22:59:34.300Z,30.20
2022-12-25T23:02:07.850Z,23.80
2022-12-25T23:04:41.298Z,22.40
2022-12-25T23:07:15.866Z,29.30
2022-12-25T23:09:49.231Z,26.60
2022-12-25T23:12:42.092Z,21.30
2022-12-25T23:15:15.548Z,25.70
2022-12-25T23:18:06.022Z,26.80
2022-12-25T23:20:57.701Z,25.00
2022-12-25T23:23:48.203Z,29.70
2022-12-25T23:29:10.474Z,24.70
2022-12-25T23:31:53.756Z,29.10
2022-12-25T23:34:27.369Z,22.30
2022-12-25T23:37:00.608Z,23.50
2022-12-25T23:39:33.921Z,25.40
2022-12-25T23:42:07.407Z,27.80
2022-12-25T23:44:40.392Z,28.20
2022-12-25T23:47:13.425Z,24.20
2022-12-25T23:49:46.476Z,25.20
2022-12-25T23:52:19.502Z,29.20
2022-12-25T23:54:53.087Z,27.30
2022-12-25T23:57:26.121Z,23.50
